This is the latest recevied weather packets stored in our database for station/object IK1AMC-3. If no packets are shown the sender has not sent any weather packets the latest 10 day(s).
| Time | Temp. | Humidity | Pressure | Rain* | Wind** | Luminosity | Snow |
|---|---|---|---|---|---|---|---|
| 1777389520 | 22.22° C | 53% | 1014 hPa | - | - | - | - |
| 1777388318 | 22.22° C | 52% | 1014.2 hPa | - | - | - | - |
| 1777387117 | 21.67° C | 54% | 1014.3 hPa | - | - | - | - |
| 1777385915 | 22.22° C | 52% | 1014.5 hPa | - | - | - | - |
| 1777384714 | 22.22° C | 51% | 1014.7 hPa | - | - | - | - |
| 1777383513 | 20.56° C | 60% | 1014.9 hPa | - | - | - | - |
| 1777382311 | 21.67° C | 58% | 1015.1 hPa | - | - | - | - |
| 1777381110 | 21.11° C | 58% | 1015.3 hPa | - | - | - | - |
| 1777379909 | 21.67° C | 57% | 1015.3 hPa | - | - | - | - |
| 1777378707 | 22.22° C | 57% | 1015.4 hPa | - | - | - | - |
| 1777377506 | 21.11° C | 57% | 1015.6 hPa | - | - | - | - |
| 1777376305 | 21.67° C | 59% | 1015.7 hPa | - | - | - | - |
| 1777375104 | 21.11° C | 62% | 1015.9 hPa | - | - | - | - |
| 1777373902 | 21.11° C | 64% | 1016 hPa | - | - | - | - |
| 1777372701 | 20.56° C | 64% | 1016.1 hPa | - | - | - | - |
| 1777371500 | 20° C | 65% | 1016.2 hPa | - | - | - | - |
| 1777370299 | 20.56° C | 66% | 1016.3 hPa | - | - | - | - |
| 1777369097 | 19.44° C | 67% | 1016.3 hPa | - | - | - | - |
| 1777367896 | 20.56° C | 67% | 1016.3 hPa | - | - | - | - |
| 1777366695 | 20° C | 68% | 1016.3 hPa | - | - | - | - |
| 1777365493 | 19.44° C | 69% | 1016.3 hPa | - | - | - | - |
| 1777364292 | 18.89° C | 72% | 1016.1 hPa | - | - | - | - |
| 1777363091 | 18.89° C | 73% | 1016 hPa | - | - | - | - |
| 1777361889 | 18.33° C | 73% | 1016.1 hPa | - | - | - | - |
| 1777360688 | 18.33° C | 72% | 1016 hPa | - | - | - | - |
* Rain since midnight (hover to see other rain measurements)
** Current wind speed in m/s (hover to see current wind gust speed)